sensor_id;sensor_type;location;lat;lon;timestamp;pressure;altitude;pressure_sealevel;temperature;humidity
53514;BME280;39768;54.148;12.174;2023-03-26T00:01:26;99774.44;;;12.07;100.00
53514;BME280;39768;54.148;12.174;2023-03-26T00:05:28;99779.19;;;12.47;100.00
53514;BME280;39768;54.148;12.174;2023-03-26T00:09:29;99788.91;;;11.99;100.00
53514;BME280;39768;54.148;12.174;2023-03-26T00:13:31;99792.69;;;12.17;100.00
53514;BME280;39768;54.148;12.174;2023-03-26T00:17:33;99799.97;;;12.12;100.00
53514;BME280;39768;54.148;12.174;2023-03-26T00:21:35;99804.31;;;12.40;100.00
53514;BME280;39768;54.148;12.174;2023-03-26T00:25:37;99813.69;;;12.50;100.00
53514;BME280;39768;54.148;12.174;2023-03-26T00:29:41;99815.84;;;12.63;100.00
53514;BME280;39768;54.148;12.174;2023-03-26T00:33:43;99807.50;;;12.49;100.00
53514;BME280;39768;54.148;12.174;2023-03-26T00:37:45;99816.44;;;12.95;100.00
53514;BME280;39768;54.148;12.174;2023-03-26T00:41:46;99816.63;;;12.42;100.00
53514;BME280;39768;54.148;12.174;2023-03-26T00:45:50;99812.56;;;12.57;100.00
53514;BME280;39768;54.148;12.174;2023-03-26T00:49:53;99814.41;;;12.78;100.00
53514;BME280;39768;54.148;12.174;2023-03-26T00:53:55;99812.19;;;12.66;100.00
53514;BME280;39768;54.148;12.174;2023-03-26T00:57:57;99819.88;;;12.50;100.00
53514;BME280;39768;54.148;12.174;2023-03-26T01:01:59;99822.59;;;12.49;100.00
53514;BME280;39768;54.148;12.174;2023-03-26T01:06:06;99826.94;;;12.51;100.00
53514;BME280;39768;54.148;12.174;2023-03-26T01:10:11;99837.22;;;12.85;100.00
53514;BME280;39768;54.148;12.174;2023-03-26T01:14:17;99835.28;;;12.65;100.00
53514;BME280;39768;54.148;12.174;2023-03-26T01:18:21;99849.94;;;12.54;100.00
53514;BME280;39768;54.148;12.174;2023-03-26T01:22:26;99849.25;;;12.22;100.00
53514;BME280;39768;54.148;12.174;2023-03-26T01:31:07;99862.75;;;12.67;100.00
53514;BME280;39768;54.148;12.174;2023-03-26T01:35:23;99859.06;;;12.71;99.85
53514;BME280;39768;54.148;12.174;2023-03-26T01:39:48;99871.94;;;12.59;99.87
53514;BME280;39768;54.148;12.174;2023-03-26T01:43:59;99856.78;;;12.61;100.00
53514;BME280;39768;54.148;12.174;2023-03-26T01:48:02;99854.66;;;12.70;99.62
53514;BME280;39768;54.148;12.174;2023-03-26T01:52:14;99861.75;;;12.70;98.37
53514;BME280;39768;54.148;12.174;2023-03-26T01:56:28;99866.09;;;12.48;100.00
53514;BME280;39768;54.148;12.174;2023-03-26T02:00:37;99868.75;;;12.48;100.00
53514;BME280;39768;54.148;12.174;2023-03-26T02:09:08;99874.75;;;12.29;100.00
53514;BME280;39768;54.148;12.174;2023-03-26T02:13:12;99875.16;;;12.17;100.00
53514;BME280;39768;54.148;12.174;2023-03-26T02:17:13;99875.72;;;12.27;100.00
53514;BME280;39768;54.148;12.174;2023-03-26T02:21:19;99876.41;;;12.32;100.00
53514;BME280;39768;54.148;12.174;2023-03-26T02:25:22;99876.75;;;12.23;100.00
53514;BME280;39768;54.148;12.174;2023-03-26T02:29:24;99872.06;;;12.79;100.00
53514;BME280;39768;54.148;12.174;2023-03-26T02:33:28;99880.97;;;13.03;96.87
53514;BME280;39768;54.148;12.174;2023-03-26T02:37:31;99885.88;;;12.16;100.00
53514;BME280;39768;54.148;12.174;2023-03-26T02:41:42;99882.94;;;12.23;99.37
53514;BME280;39768;54.148;12.174;2023-03-26T02:45:45;99896.56;;;12.14;98.36
53514;BME280;39768;54.148;12.174;2023-03-26T02:50:06;99889.72;;;12.32;97.88
53514;BME280;39768;54.148;12.174;2023-03-26T02:54:25;99895.34;;;12.74;98.52
53514;BME280;39768;54.148;12.174;2023-03-26T02:58:37;99889.03;;;12.27;100.00
53514;BME280;39768;54.148;12.174;2023-03-26T03:02:39;99898.88;;;11.98;100.00
53514;BME280;39768;54.148;12.174;2023-03-26T03:06:59;99904.28;;;12.47;100.00
53514;BME280;39768;54.148;12.174;2023-03-26T03:11:15;99907.72;;;12.50;100.00
53514;BME280;39768;54.148;12.174;2023-03-26T03:15:22;99911.69;;;12.63;100.00
53514;BME280;39768;54.148;12.174;2023-03-26T03:19:23;99916.91;;;12.66;100.00
53514;BME280;39768;54.148;12.174;2023-03-26T03:23:25;99923.56;;;12.28;100.00
53514;BME280;39768;54.148;12.174;2023-03-26T03:27:37;99918.16;;;11.77;100.00
53514;BME280;39768;54.148;12.174;2023-03-26T03:31:44;99914.78;;;12.26;100.00
53514;BME280;39768;54.148;12.174;2023-03-26T03:35:59;99923.44;;;12.05;100.00
53514;BME280;39768;54.148;12.174;2023-03-26T03:40:03;99925.09;;;12.09;100.00
53514;BME280;39768;54.148;12.174;2023-03-26T03:44:08;99927.47;;;11.90;99.54
53514;BME280;39768;54.148;12.174;2023-03-26T03:48:10;99922.28;;;12.40;96.54
53514;BME280;39768;54.148;12.174;2023-03-26T03:52:15;99929.88;;;12.51;96.82
53514;BME280;39768;54.148;12.174;2023-03-26T03:56:19;99929.13;;;12.47;98.33
53514;BME280;39768;54.148;12.174;2023-03-26T04:00:44;99939.00;;;12.17;100.00
53514;BME280;39768;54.148;12.174;2023-03-26T04:05:18;99939.44;;;12.31;100.00
53514;BME280;39768;54.148;12.174;2023-03-26T04:09:23;99950.00;;;12.07;100.00
53514;BME280;39768;54.148;12.174;2023-03-26T04:13:27;99948.53;;;12.24;100.00
53514;BME280;39768;54.148;12.174;2023-03-26T04:17:46;99952.78;;;11.76;100.00
53514;BME280;39768;54.148;12.174;2023-03-26T04:21:50;99954.53;;;12.03;100.00
53514;BME280;39768;54.148;12.174;2023-03-26T04:25:54;99952.59;;;11.82;100.00
53514;BME280;39768;54.148;12.174;2023-03-26T04:30:11;99960.47;;;11.85;100.00
53514;BME280;39768;54.148;12.174;2023-03-26T04:34:20;99949.09;;;11.80;98.79
53514;BME280;39768;54.148;12.174;2023-03-26T04:38:50;99957.72;;;12.16;97.82
53514;BME280;39768;54.148;12.174;2023-03-26T04:42:57;99955.78;;;11.93;100.00
53514;BME280;39768;54.148;12.174;2023-03-26T04:47:32;99966.94;;;12.04;100.00
53514;BME280;39768;54.148;12.174;2023-03-26T04:51:38;99961.69;;;12.29;99.26
53514;BME280;39768;54.148;12.174;2023-03-26T04:56:00;99957.44;;;11.97;100.00
53514;BME280;39768;54.148;12.174;2023-03-26T05:00:30;99955.41;;;12.04;100.00
53514;BME280;39768;54.148;12.174;2023-03-26T05:04:33;99967.56;;;11.55;100.00
53514;BME280;39768;54.148;12.174;2023-03-26T05:08:37;99960.25;;;11.61;100.00
53514;BME280;39768;54.148;12.174;2023-03-26T05:12:40;99968.16;;;11.64;100.00
53514;BME280;39768;54.148;12.174;2023-03-26T05:16:47;99957.00;;;11.83;99.58
53514;BME280;39768;54.148;12.174;2023-03-26T05:20:49;99961.13;;;11.62;99.73
53514;BME280;39768;54.148;12.174;2023-03-26T05:24:51;99952.75;;;11.46;99.45
53514;BME280;39768;54.148;12.174;2023-03-26T05:28:53;99951.47;;;11.59;97.06
53514;BME280;39768;54.148;12.174;2023-03-26T05:32:58;99958.41;;;11.36;98.16
53514;BME280;39768;54.148;12.174;2023-03-26T05:37:04;99955.78;;;11.63;95.30
53514;BME280;39768;54.148;12.174;2023-03-26T05:41:25;99969.31;;;11.56;95.66
53514;BME280;39768;54.148;12.174;2023-03-26T05:45:27;99963.31;;;11.79;93.18
53514;BME280;39768;54.148;12.174;2023-03-26T05:49:30;99960.13;;;11.66;92.26
53514;BME280;39768;54.148;12.174;2023-03-26T05:53:32;99963.34;;;11.77;90.76
53514;BME280;39768;54.148;12.174;2023-03-26T05:58:00;99953.81;;;11.99;89.69
53514;BME280;39768;54.148;12.174;2023-03-26T06:02:20;99977.34;;;11.54;96.52
53514;BME280;39768;54.148;12.174;2023-03-26T06:06:51;99984.13;;;10.70;100.00
53514;BME280;39768;54.148;12.174;2023-03-26T06:11:02;99988.56;;;11.02;100.00
53514;BME280;39768;54.148;12.174;2023-03-26T06:15:09;99992.81;;;10.77;100.00
53514;BME280;39768;54.148;12.174;2023-03-26T06:19:20;100004.19;;;10.48;100.00
53514;BME280;39768;54.148;12.174;2023-03-26T06:23:40;99997.22;;;11.10;100.00
53514;BME280;39768;54.148;12.174;2023-03-26T06:27:52;100005.13;;;10.79;100.00
53514;BME280;39768;54.148;12.174;2023-03-26T06:32:16;100003.13;;;10.87;100.00
53514;BME280;39768;54.148;12.174;2023-03-26T06:36:32;100010.47;;;11.12;100.00
53514;BME280;39768;54.148;12.174;2023-03-26T06:40:33;100011.16;;;10.84;100.00
53514;BME280;39768;54.148;12.174;2023-03-26T06:44:53;100018.66;;;10.35;100.00
53514;BME280;39768;54.148;12.174;2023-03-26T06:49:07;100015.38;;;10.59;100.00
53514;BME280;39768;54.148;12.174;2023-03-26T06:53:14;100019.00;;;10.55;100.00
53514;BME280;39768;54.148;12.174;2023-03-26T06:57:36;100025.56;;;11.10;100.00
53514;BME280;39768;54.148;12.174;2023-03-26T07:02:00;100039.38;;;11.53;99.76
53514;BME280;39768;54.148;12.174;2023-03-26T07:06:20;100033.50;;;11.11;100.00
53514;BME280;39768;54.148;12.174;2023-03-26T07:10:40;100037.00;;;11.12;100.00
53514;BME280;39768;54.148;12.174;2023-03-26T07:15:09;100041.72;;;11.33;97.43
53514;BME280;39768;54.148;12.174;2023-03-26T07:19:39;100043.34;;;10.38;88.84
53514;BME280;39768;54.148;12.174;2023-03-26T07:23:40;100050.59;;;10.67;86.66
53514;BME280;39768;54.148;12.174;2023-03-26T07:28:28;100037.81;;;10.81;82.53
53514;BME280;39768;54.148;12.174;2023-03-26T07:37:38;100053.75;;;10.81;79.74
53514;BME280;39768;54.148;12.174;2023-03-26T07:42:36;100050.00;;;11.22;76.94
53514;BME280;39768;54.148;12.174;2023-03-26T07:51:56;100057.16;;;10.86;74.25
53514;BME280;39768;54.148;12.174;2023-03-26T07:56:51;100057.22;;;11.17;73.61
53514;BME280;39768;54.148;12.174;2023-03-26T08:01:25;100066.13;;;10.82;68.85
53514;BME280;39768;54.148;12.174;2023-03-26T08:05:36;100071.22;;;10.90;63.34
53514;BME280;39768;54.148;12.174;2023-03-26T08:14:23;100068.31;;;10.65;62.66
53514;BME280;39768;54.148;12.174;2023-03-26T08:18:55;100074.41;;;10.69;65.84
53514;BME280;39768;54.148;12.174;2023-03-26T08:23:25;100079.53;;;10.76;63.21
53514;BME280;39768;54.148;12.174;2023-03-26T08:27:40;100081.94;;;10.51;61.20
53514;BME280;39768;54.148;12.174;2023-03-26T08:31:45;100080.69;;;11.00;62.09
53514;BME280;39768;54.148;12.174;2023-03-26T08:35:48;100081.31;;;11.11;61.76
53514;BME280;39768;54.148;12.174;2023-03-26T08:39:50;100080.16;;;11.20;59.39
53514;BME280;39768;54.148;12.174;2023-03-26T08:44:01;100088.75;;;10.97;56.71
53514;BME280;39768;54.148;12.174;2023-03-26T08:48:27;100088.72;;;10.63;56.67
53514;BME280;39768;54.148;12.174;2023-03-26T09:06:18;100091.81;;;10.82;56.50
53514;BME280;39768;54.148;12.174;2023-03-26T09:10:43;100091.06;;;11.11;56.56
53514;BME280;39768;54.148;12.174;2023-03-26T09:19:32;100095.09;;;11.25;54.47
53514;BME280;39768;54.148;12.174;2023-03-26T09:36:35;100114.31;;;10.66;53.15
53514;BME280;39768;54.148;12.174;2023-03-26T09:45:25;100116.16;;;11.31;52.67
53514;BME280;39768;54.148;12.174;2023-03-26T09:54:14;100109.91;;;11.34;55.40
53514;BME280;39768;54.148;12.174;2023-03-26T10:03:24;100110.84;;;11.31;53.40
53514;BME280;39768;54.148;12.174;2023-03-26T10:07:53;100122.06;;;11.10;51.34
53514;BME280;39768;54.148;12.174;2023-03-26T10:12:13;100113.34;;;11.04;53.56
53514;BME280;39768;54.148;12.174;2023-03-26T10:20:56;100137.84;;;11.15;53.37
53514;BME280;39768;54.148;12.174;2023-03-26T10:25:24;100123.78;;;11.44;52.29
53514;BME280;39768;54.148;12.174;2023-03-26T10:34:42;100120.31;;;11.09;52.38
53514;BME280;39768;54.148;12.174;2023-03-26T10:43:16;100136.31;;;11.40;51.70
53514;BME280;39768;54.148;12.174;2023-03-26T10:51:59;100132.84;;;11.03;54.69
53514;BME280;39768;54.148;12.174;2023-03-26T10:56:20;100129.28;;;11.04;55.58
53514;BME280;39768;54.148;12.174;2023-03-26T11:00:25;100132.97;;;11.64;55.15
53514;BME280;39768;54.148;12.174;2023-03-26T11:17:34;100140.44;;;11.84;51.75
53514;BME280;39768;54.148;12.174;2023-03-26T11:21:47;100151.84;;;12.17;50.36
53514;BME280;39768;54.148;12.174;2023-03-26T11:26:14;100155.78;;;11.07;51.97
53514;BME280;39768;54.148;12.174;2023-03-26T11:30:26;100163.22;;;10.92;51.94
53514;BME280;39768;54.148;12.174;2023-03-26T11:34:35;100159.25;;;11.43;51.65
53514;BME280;39768;54.148;12.174;2023-03-26T11:38:45;100167.19;;;11.44;50.11
53514;BME280;39768;54.148;12.174;2023-03-26T11:42:55;100164.63;;;12.06;50.22
53514;BME280;39768;54.148;12.174;2023-03-26T11:47:01;100166.00;;;12.19;50.33
53514;BME280;39768;54.148;12.174;2023-03-26T11:51:07;100176.00;;;12.41;48.08
53514;BME280;39768;54.148;12.174;2023-03-26T11:55:13;100176.34;;;12.30;50.83
53514;BME280;39768;54.148;12.174;2023-03-26T11:59:26;100174.63;;;12.57;48.80
53514;BME280;39768;54.148;12.174;2023-03-26T12:03:29;100178.31;;;12.81;46.34
53514;BME280;39768;54.148;12.174;2023-03-26T12:07:32;100183.72;;;12.50;48.29
53514;BME280;39768;54.148;12.174;2023-03-26T12:11:34;100178.47;;;12.47;46.01
53514;BME280;39768;54.148;12.174;2023-03-26T12:15:41;100174.25;;;12.69;50.88
53514;BME280;39768;54.148;12.174;2023-03-26T12:19:44;100187.50;;;12.98;47.28
53514;BME280;39768;54.148;12.174;2023-03-26T12:24:04;100183.28;;;12.91;49.01
53514;BME280;39768;54.148;12.174;2023-03-26T12:32:15;100168.44;;;12.84;48.19
53514;BME280;39768;54.148;12.174;2023-03-26T12:36:23;100178.06;;;12.02;47.26
53514;BME280;39768;54.148;12.174;2023-03-26T12:40:30;100185.19;;;12.01;48.08
53514;BME280;39768;54.148;12.174;2023-03-26T12:44:37;100186.53;;;12.45;47.85
53514;BME280;39768;54.148;12.174;2023-03-26T12:49:05;100191.47;;;12.28;47.71
53514;BME280;39768;54.148;12.174;2023-03-26T12:53:22;100187.41;;;12.46;49.43
53514;BME280;39768;54.148;12.174;2023-03-26T12:57:36;100186.53;;;11.85;49.40
53514;BME280;39768;54.148;12.174;2023-03-26T13:01:58;100194.28;;;11.92;50.96
53514;BME280;39768;54.148;12.174;2023-03-26T13:06:35;100187.84;;;12.01;52.16
53514;BME280;39768;54.148;12.174;2023-03-26T13:11:19;100201.38;;;11.58;51.05
53514;BME280;39768;54.148;12.174;2023-03-26T13:15:56;100185.53;;;11.55;52.75
53514;BME280;39768;54.148;12.174;2023-03-26T13:20:09;100186.31;;;11.58;51.41
53514;BME280;39768;54.148;12.174;2023-03-26T13:33:22;100170.09;;;12.02;51.61
53514;BME280;39768;54.148;12.174;2023-03-26T13:45:57;100174.09;;;12.46;49.93
53514;BME280;39768;54.148;12.174;2023-03-26T13:58:29;100165.41;;;12.10;50.73
53514;BME280;39768;54.148;12.174;2023-03-26T14:02:38;100163.88;;;12.60;52.12
53514;BME280;39768;54.148;12.174;2023-03-26T14:11:07;100168.13;;;12.38;51.06
53514;BME280;39768;54.148;12.174;2023-03-26T14:19:42;100171.81;;;12.02;52.07
53514;BME280;39768;54.148;12.174;2023-03-26T14:24:16;100180.69;;;12.32;52.92
53514;BME280;39768;54.148;12.174;2023-03-26T14:46:10;100179.97;;;11.96;51.81
53514;BME280;39768;54.148;12.174;2023-03-26T14:54:30;100175.97;;;12.13;52.17
53514;BME280;39768;54.148;12.174;2023-03-26T15:07:28;100183.78;;;12.17;51.03
53514;BME280;39768;54.148;12.174;2023-03-26T15:11:56;100185.81;;;12.09;51.06
53514;BME280;39768;54.148;12.174;2023-03-26T15:16:44;100180.75;;;12.60;52.99
53514;BME280;39768;54.148;12.174;2023-03-26T15:21:20;100191.19;;;11.74;50.97
53514;BME280;39768;54.148;12.174;2023-03-26T15:25:49;100189.91;;;11.90;53.03
53514;BME280;39768;54.148;12.174;2023-03-26T15:30:19;100192.56;;;11.90;51.61
53514;BME280;39768;54.148;12.174;2023-03-26T15:43:14;100202.97;;;11.65;50.37
53514;BME280;39768;54.148;12.174;2023-03-26T15:51:50;100199.84;;;11.83;50.08
53514;BME280;39768;54.148;12.174;2023-03-26T16:00:27;100209.28;;;11.27;53.46
53514;BME280;39768;54.148;12.174;2023-03-26T16:05:17;100216.56;;;11.19;57.07
53514;BME280;39768;54.148;12.174;2023-03-26T16:13:48;100232.72;;;10.71;67.11
53514;BME280;39768;54.148;12.174;2023-03-26T16:22:15;100225.72;;;10.69;70.06
53514;BME280;39768;54.148;12.174;2023-03-26T16:31:15;100221.00;;;10.83;71.18
53514;BME280;39768;54.148;12.174;2023-03-26T16:36:13;100229.78;;;10.83;69.26
53514;BME280;39768;54.148;12.174;2023-03-26T16:40:26;100234.28;;;10.81;68.40
53514;BME280;39768;54.148;12.174;2023-03-26T16:44:49;100242.38;;;10.75;69.14
53514;BME280;39768;54.148;12.174;2023-03-26T16:49:04;100240.16;;;10.55;65.91
53514;BME280;39768;54.148;12.174;2023-03-26T16:53:19;100237.19;;;10.69;62.84
53514;BME280;39768;54.148;12.174;2023-03-26T16:57:26;100249.22;;;10.45;64.88
53514;BME280;39768;54.148;12.174;2023-03-26T17:02:15;100249.22;;;10.01;70.62
53514;BME280;39768;54.148;12.174;2023-03-26T17:06:59;100253.75;;;10.40;73.00
53514;BME280;39768;54.148;12.174;2023-03-26T17:11:08;100262.59;;;10.41;70.96
53514;BME280;39768;54.148;12.174;2023-03-26T17:15:38;100267.47;;;10.17;71.48
53514;BME280;39768;54.148;12.174;2023-03-26T17:24:23;100261.81;;;10.37;71.58
53514;BME280;39768;54.148;12.174;2023-03-26T17:29:08;100267.81;;;10.45;68.95
53514;BME280;39768;54.148;12.174;2023-03-26T17:33:26;100267.19;;;10.74;68.00
53514;BME280;39768;54.148;12.174;2023-03-26T17:37:38;100273.41;;;11.12;65.24
53514;BME280;39768;54.148;12.174;2023-03-26T17:42:00;100281.03;;;10.48;65.33
53514;BME280;39768;54.148;12.174;2023-03-26T17:46:28;100294.50;;;10.38;66.44
53514;BME280;39768;54.148;12.174;2023-03-26T17:50:40;100293.03;;;10.66;63.89
53514;BME280;39768;54.148;12.174;2023-03-26T17:54:48;100300.53;;;10.46;66.31
53514;BME280;39768;54.148;12.174;2023-03-26T17:58:52;100295.81;;;11.00;62.76
53514;BME280;39768;54.148;12.174;2023-03-26T18:03:22;100299.34;;;11.01;62.11
53514;BME280;39768;54.148;12.174;2023-03-26T18:07:49;100311.25;;;10.83;63.33
53514;BME280;39768;54.148;12.174;2023-03-26T18:16:59;100318.25;;;10.85;61.43
53514;BME280;39768;54.148;12.174;2023-03-26T18:21:47;100326.22;;;10.85;61.62
53514;BME280;39768;54.148;12.174;2023-03-26T18:26:30;100326.53;;;10.72;63.16
53514;BME280;39768;54.148;12.174;2023-03-26T18:30:44;100326.47;;;10.75;63.44
53514;BME280;39768;54.148;12.174;2023-03-26T18:34:56;100327.13;;;10.84;62.87
53514;BME280;39768;54.148;12.174;2023-03-26T18:38:58;100337.63;;;10.49;63.55
53514;BME280;39768;54.148;12.174;2023-03-26T18:43:00;100333.22;;;10.48;63.88
53514;BME280;39768;54.148;12.174;2023-03-26T18:47:05;100329.34;;;10.18;65.94
53514;BME280;39768;54.148;12.174;2023-03-26T18:51:08;100340.50;;;10.38;65.04
53514;BME280;39768;54.148;12.174;2023-03-26T18:55:12;100332.34;;;9.98;64.94
53514;BME280;39768;54.148;12.174;2023-03-26T18:59:26;100329.75;;;9.95;65.73
53514;BME280;39768;54.148;12.174;2023-03-26T19:03:31;100325.94;;;10.10;65.05
53514;BME280;39768;54.148;12.174;2023-03-26T19:07:36;100330.97;;;9.77;64.97
53514;BME280;39768;54.148;12.174;2023-03-26T19:11:39;100332.38;;;9.44;68.07
53514;BME280;39768;54.148;12.174;2023-03-26T19:15:44;100337.69;;;9.44;67.17
53514;BME280;39768;54.148;12.174;2023-03-26T19:19:48;100331.56;;;9.39;67.89
53514;BME280;39768;54.148;12.174;2023-03-26T19:23:50;100335.53;;;9.66;65.77
53514;BME280;39768;54.148;12.174;2023-03-26T19:27:53;100340.94;;;9.62;65.26
53514;BME280;39768;54.148;12.174;2023-03-26T19:32:05;100341.16;;;9.49;65.10
53514;BME280;39768;54.148;12.174;2023-03-26T19:36:18;100352.53;;;9.53;65.48
53514;BME280;39768;54.148;12.174;2023-03-26T19:40:22;100352.41;;;9.64;65.58
53514;BME280;39768;54.148;12.174;2023-03-26T19:44:30;100356.91;;;9.57;64.54
53514;BME280;39768;54.148;12.174;2023-03-26T19:48:33;100365.66;;;9.62;65.47
53514;BME280;39768;54.148;12.174;2023-03-26T19:53:15;100355.81;;;9.70;67.37
53514;BME280;39768;54.148;12.174;2023-03-26T19:57:22;100361.53;;;9.43;69.37
53514;BME280;39768;54.148;12.174;2023-03-26T20:01:25;100369.28;;;9.57;67.57
53514;BME280;39768;54.148;12.174;2023-03-26T20:05:31;100375.44;;;8.96;70.72
53514;BME280;39768;54.148;12.174;2023-03-26T20:09:33;100381.38;;;9.14;71.09
53514;BME280;39768;54.148;12.174;2023-03-26T20:13:43;100384.38;;;8.89;72.16
53514;BME280;39768;54.148;12.174;2023-03-26T20:18:54;100385.13;;;8.98;72.24
53514;BME280;39768;54.148;12.174;2023-03-26T20:24:20;100400.19;;;9.56;68.99
53514;BME280;39768;54.148;12.174;2023-03-26T20:29:39;100404.06;;;9.34;69.91
53514;BME280;39768;54.148;12.174;2023-03-26T20:34:51;100409.09;;;8.88;74.18
53514;BME280;39768;54.148;12.174;2023-03-26T20:38:53;100413.72;;;9.36;71.53
53514;BME280;39768;54.148;12.174;2023-03-26T20:42:54;100416.97;;;8.92;73.68
53514;BME280;39768;54.148;12.174;2023-03-26T20:46:56;100420.97;;;8.50;76.45
53514;BME280;39768;54.148;12.174;2023-03-26T20:50:59;100428.25;;;8.27;77.85
53514;BME280;39768;54.148;12.174;2023-03-26T20:55:01;100426.88;;;7.82;76.81
53514;BME280;39768;54.148;12.174;2023-03-26T20:59:03;100426.66;;;8.04;74.66
53514;BME280;39768;54.148;12.174;2023-03-26T21:03:14;100440.94;;;7.85;75.17
53514;BME280;39768;54.148;12.174;2023-03-26T21:07:16;100434.59;;;8.03;73.80
53514;BME280;39768;54.148;12.174;2023-03-26T21:15:46;100434.41;;;8.29;68.75
53514;BME280;39768;54.148;12.174;2023-03-26T21:19:48;100446.91;;;8.08;70.65
53514;BME280;39768;54.148;12.174;2023-03-26T21:24:05;100451.56;;;7.74;70.79
53514;BME280;39768;54.148;12.174;2023-03-26T21:28:32;100456.94;;;7.61;65.88
53514;BME280;39768;54.148;12.174;2023-03-26T21:32:43;100462.28;;;7.55;65.07
53514;BME280;39768;54.148;12.174;2023-03-26T21:36:47;100476.50;;;7.26;63.55
53514;BME280;39768;54.148;12.174;2023-03-26T21:40:50;100486.31;;;6.91;65.12
53514;BME280;39768;54.148;12.174;2023-03-26T21:44:54;100483.44;;;7.44;65.75
53514;BME280;39768;54.148;12.174;2023-03-26T21:48:56;100482.63;;;7.31;66.13
53514;BME280;39768;54.148;12.174;2023-03-26T21:52:58;100492.34;;;7.23;66.31
53514;BME280;39768;54.148;12.174;2023-03-26T22:01:53;100500.34;;;7.05;68.31
53514;BME280;39768;54.148;12.174;2023-03-26T22:10:03;100502.97;;;6.99;67.97
53514;BME280;39768;54.148;12.174;2023-03-26T22:14:06;100504.69;;;7.20;67.66
53514;BME280;39768;54.148;12.174;2023-03-26T22:18:09;100519.69;;;7.07;67.76
53514;BME280;39768;54.148;12.174;2023-03-26T22:22:10;100518.84;;;6.88;68.14
53514;BME280;39768;54.148;12.174;2023-03-26T22:26:20;100523.31;;;6.54;66.67
53514;BME280;39768;54.148;12.174;2023-03-26T22:30:22;100515.38;;;6.57;67.59
53514;BME280;39768;54.148;12.174;2023-03-26T22:34:24;100525.00;;;6.87;67.01
53514;BME280;39768;54.148;12.174;2023-03-26T22:38:26;100538.16;;;7.04;66.34
53514;BME280;39768;54.148;12.174;2023-03-26T22:42:27;100530.34;;;6.64;67.08
53514;BME280;39768;54.148;12.174;2023-03-26T22:46:29;100539.13;;;6.57;68.00
53514;BME280;39768;54.148;12.174;2023-03-26T22:50:31;100549.69;;;6.30;69.47
53514;BME280;39768;54.148;12.174;2023-03-26T22:54:33;100547.91;;;6.53;69.81
53514;BME280;39768;54.148;12.174;2023-03-26T22:58:36;100550.56;;;6.50;70.20
53514;BME280;39768;54.148;12.174;2023-03-26T23:02:39;100554.09;;;6.66;69.05
53514;BME280;39768;54.148;12.174;2023-03-26T23:06:41;100562.00;;;6.63;68.56
53514;BME280;39768;54.148;12.174;2023-03-26T23:10:43;100564.59;;;6.86;69.21
53514;BME280;39768;54.148;12.174;2023-03-26T23:14:45;100572.53;;;6.63;68.52
53514;BME280;39768;54.148;12.174;2023-03-26T23:18:52;100578.69;;;6.66;69.85
53514;BME280;39768;54.148;12.174;2023-03-26T23:22:54;100586.63;;;6.51;71.19
53514;BME280;39768;54.148;12.174;2023-03-26T23:27:16;100585.69;;;6.86;70.96
53514;BME280;39768;54.148;12.174;2023-03-26T23:31:42;100583.06;;;6.32;70.94
53514;BME280;39768;54.148;12.174;2023-03-26T23:36:06;100585.72;;;6.22;71.83
53514;BME280;39768;54.148;12.174;2023-03-26T23:40:31;100583.97;;;6.36;72.88
53514;BME280;39768;54.148;12.174;2023-03-26T23:44:53;100591.84;;;6.30;74.33
53514;BME280;39768;54.148;12.174;2023-03-26T23:49:16;100593.63;;;6.45;74.26
53514;BME280;39768;54.148;12.174;2023-03-26T23:53:38;100608.56;;;6.32;76.17
53514;BME280;39768;54.148;12.174;2023-03-26T23:58:00;100612.09;;;6.93;73.44
